createdAt,value
2022-11-22T00:00:05.790Z,19.63
2022-11-22T00:02:55.601Z,18.92
2022-11-22T00:05:44.276Z,19.33
2022-11-22T00:08:33.410Z,19.75
2022-11-22T00:11:21.700Z,19.48
2022-11-22T00:14:10.000Z,19.85
2022-11-22T00:16:58.370Z,20.83
2022-11-22T00:19:48.040Z,19.35
2022-11-22T00:22:41.080Z,19.15
2022-11-22T00:25:32.491Z,20.35
2022-11-22T00:28:20.837Z,19.00
2022-11-22T00:31:09.165Z,20.10
2022-11-22T00:33:57.495Z,20.17
2022-11-22T00:36:47.169Z,20.42
2022-11-22T00:39:35.627Z,19.70
2022-11-22T00:42:24.028Z,20.58
2022-11-22T00:45:12.535Z,21.35
2022-11-22T00:48:00.828Z,19.48
2022-11-22T00:50:50.489Z,21.13
2022-11-22T00:53:40.125Z,20.50
2022-11-22T00:56:28.512Z,20.27
2022-11-22T00:59:16.841Z,21.60
2022-11-22T01:02:05.142Z,20.90
2022-11-22T01:04:53.511Z,19.38
2022-11-22T01:07:41.886Z,21.15
2022-11-22T01:10:31.765Z,19.05
2022-11-22T01:13:20.117Z,18.77
2022-11-22T01:16:10.788Z,19.30
2022-11-22T01:18:59.070Z,20.00
2022-11-22T01:21:47.495Z,17.52
2022-11-22T01:24:35.823Z,19.17
2022-11-22T01:27:25.724Z,18.13
2022-11-22T01:30:14.637Z,17.67
2022-11-22T01:33:03.103Z,17.20
2022-11-22T01:35:51.424Z,16.73
2022-11-22T01:38:39.941Z,17.38
2022-11-22T01:41:28.556Z,16.02
2022-11-22T01:44:24.032Z,16.30
2022-11-22T01:47:14.951Z,16.73
2022-11-22T01:50:08.070Z,15.77
2022-11-22T01:53:01.372Z,16.02
2022-11-22T01:55:52.443Z,15.88
2022-11-22T01:58:42.890Z,16.90
2022-11-22T02:01:33.653Z,16.40
2022-11-22T02:04:24.771Z,17.23
2022-11-22T02:07:19.165Z,15.77
2022-11-22T02:10:08.551Z,15.45
2022-11-22T02:13:00.397Z,15.43
2022-11-22T02:15:48.695Z,16.13
2022-11-22T02:18:39.394Z,16.38
2022-11-22T02:21:28.479Z,16.17
2022-11-22T02:24:22.385Z,15.95
2022-11-22T02:27:12.170Z,15.63
2022-11-22T02:30:00.476Z,15.73
2022-11-22T02:32:49.098Z,15.25
2022-11-22T02:35:37.733Z,14.98
2022-11-22T02:38:28.162Z,15.00
2022-11-22T02:41:16.645Z,15.77
2022-11-22T02:44:07.937Z,15.38
2022-11-22T02:49:44.623Z,16.45
2022-11-22T02:52:32.982Z,17.05
2022-11-22T02:55:21.371Z,16.30
2022-11-22T02:58:09.830Z,17.17
2022-11-22T03:00:59.520Z,17.52
2022-11-22T03:03:47.926Z,17.10
2022-11-22T03:06:36.261Z,17.35
2022-11-22T03:09:24.939Z,18.33
2022-11-22T03:12:13.303Z,18.15
2022-11-22T03:15:01.605Z,18.98
2022-11-22T03:17:57.605Z,18.23
2022-11-22T03:20:45.956Z,18.92
2022-11-22T03:23:34.715Z,18.38
2022-11-22T03:26:23.064Z,17.17
2022-11-22T03:29:11.392Z,18.50
2022-11-22T03:31:59.644Z,17.88
2022-11-22T03:34:49.342Z,18.55
2022-11-22T03:37:37.728Z,17.42
2022-11-22T03:40:26.076Z,18.25
2022-11-22T03:43:14.375Z,18.13
2022-11-22T03:46:02.733Z,17.75
2022-11-22T03:48:51.023Z,17.02
2022-11-22T03:51:40.771Z,17.25
2022-11-22T03:54:29.050Z,16.85
2022-11-22T03:57:17.987Z,16.98
2022-11-22T04:00:07.779Z,16.75
2022-11-22T04:02:56.076Z,17.52
2022-11-22T04:05:45.878Z,16.70
2022-11-22T04:08:35.553Z,17.15
2022-11-22T04:11:23.902Z,16.92
2022-11-22T04:14:30.509Z,16.52
2022-11-22T04:17:39.522Z,16.15
2022-11-22T04:20:47.450Z,15.80
2022-11-22T04:23:37.094Z,16.90
2022-11-22T04:26:24.426Z,17.13
2022-11-22T04:29:12.770Z,16.58
2022-11-22T04:32:18.378Z,17.00
2022-11-22T04:35:07.313Z,16.65
2022-11-22T04:37:55.634Z,17.05
2022-11-22T04:40:46.142Z,16.67
2022-11-22T04:43:51.680Z,16.98
2022-11-22T04:46:39.976Z,17.13
2022-11-22T04:49:28.741Z,16.13
2022-11-22T04:52:34.626Z,16.95
2022-11-22T04:55:23.340Z,16.48
2022-11-22T04:58:13.116Z,17.50
2022-11-22T05:01:01.492Z,15.30
2022-11-22T05:03:49.899Z,17.15
2022-11-22T05:06:38.664Z,16.98
2022-11-22T05:09:27.300Z,16.25
2022-11-22T05:12:15.846Z,15.82
2022-11-22T05:15:06.419Z,16.70
2022-11-22T05:17:54.760Z,12.27
2022-11-22T05:20:43.112Z,17.60
2022-11-22T05:23:48.948Z,16.52
2022-11-22T05:26:38.010Z,16.48
2022-11-22T05:29:26.541Z,17.35
2022-11-22T05:32:16.309Z,16.98
2022-11-22T05:35:05.393Z,17.02
2022-11-22T05:37:53.810Z,16.77
2022-11-22T05:40:42.154Z,17.60
2022-11-22T05:43:30.533Z,17.48
2022-11-22T05:46:24.356Z,17.40
2022-11-22T05:49:14.425Z,17.02
2022-11-22T05:52:02.820Z,17.15
2022-11-22T05:54:51.122Z,17.13
2022-11-22T05:57:39.476Z,17.35
2022-11-22T06:00:27.952Z,16.98
2022-11-22T06:03:16.295Z,15.63
2022-11-22T06:06:07.083Z,16.65
2022-11-22T06:08:55.360Z,17.40
2022-11-22T06:11:44.172Z,17.38
2022-11-22T06:14:32.553Z,17.80
2022-11-22T06:17:20.912Z,17.95
2022-11-22T06:20:10.634Z,17.17
2022-11-22T06:23:00.741Z,16.67
2022-11-22T06:25:49.133Z,16.98
2022-11-22T06:28:38.748Z,16.20
2022-11-22T06:31:28.259Z,16.80
2022-11-22T06:34:16.792Z,16.23
2022-11-22T06:37:05.160Z,17.77
2022-11-22T06:39:54.916Z,16.88
2022-11-22T06:42:43.212Z,17.13
2022-11-22T06:45:31.533Z,17.27
2022-11-22T06:48:19.847Z,16.65
2022-11-22T06:51:11.038Z,16.23
2022-11-22T06:53:59.858Z,15.70
2022-11-22T06:56:49.561Z,16.75
2022-11-22T06:59:37.907Z,16.23
2022-11-22T07:02:26.272Z,16.40
2022-11-22T07:05:25.701Z,15.73
2022-11-22T07:08:14.501Z,16.52
2022-11-22T07:11:03.812Z,16.48
2022-11-22T07:13:54.189Z,16.48
2022-11-22T07:16:42.699Z,16.65
2022-11-22T07:19:31.186Z,17.27
2022-11-22T07:22:19.630Z,17.35
2022-11-22T07:25:08.561Z,17.08
2022-11-22T07:27:56.878Z,16.45
2022-11-22T07:30:46.628Z,16.25
2022-11-22T07:33:35.523Z,16.55
2022-11-22T07:36:24.331Z,16.77
2022-11-22T07:39:12.970Z,16.27
2022-11-22T07:42:01.417Z,15.55
2022-11-22T07:44:49.759Z,16.75
2022-11-22T07:47:39.422Z,17.05
2022-11-22T07:50:28.450Z,17.65
2022-11-22T07:53:17.386Z,16.20
2022-11-22T07:56:06.656Z,16.58
2022-11-22T07:58:55.803Z,16.38
2022-11-22T08:01:44.187Z,17.50
2022-11-22T08:04:33.923Z,18.02
2022-11-22T08:07:22.396Z,16.23
2022-11-22T08:10:11.341Z,14.93
2022-11-22T08:13:01.136Z,16.45
2022-11-22T08:15:50.802Z,15.95
2022-11-22T08:18:42.261Z,15.63
2022-11-22T08:21:31.960Z,16.67
2022-11-22T08:24:20.585Z,16.50
2022-11-22T08:27:08.880Z,16.92
2022-11-22T08:29:57.193Z,16.15
2022-11-22T08:32:45.816Z,16.35
2022-11-22T08:35:35.001Z,15.48
2022-11-22T08:38:25.085Z,15.45
2022-11-22T08:41:13.398Z,17.02
2022-11-22T08:44:01.705Z,16.58
2022-11-22T08:46:50.209Z,16.50
2022-11-22T08:49:38.538Z,15.80
2022-11-22T08:52:27.216Z,16.25
2022-11-22T08:55:17.058Z,17.30
2022-11-22T08:58:05.409Z,16.90
2022-11-22T09:00:54.026Z,16.63
2022-11-22T09:03:42.449Z,16.60
2022-11-22T09:09:40.455Z,16.05
2022-11-22T09:12:30.100Z,16.13
2022-11-22T09:15:18.692Z,17.63
2022-11-22T09:18:07.004Z,18.20
2022-11-22T09:20:59.287Z,18.77
2022-11-22T09:23:49.089Z,16.40
2022-11-22T09:26:37.571Z,16.40
2022-11-22T09:29:27.898Z,17.20
2022-11-22T09:32:16.399Z,13.48
2022-11-22T09:35:04.987Z,16.48
2022-11-22T09:37:53.312Z,16.80
2022-11-22T09:40:46.977Z,16.85
2022-11-22T09:43:46.373Z,17.35
2022-11-22T09:46:43.764Z,17.70
2022-11-22T09:49:42.664Z,17.05
2022-11-22T09:52:36.606Z,17.63
2022-11-22T09:55:29.977Z,16.60
2022-11-22T09:58:29.202Z,17.08
2022-11-22T10:01:21.437Z,24.92
2022-11-22T10:04:15.542Z,17.55
2022-11-22T10:07:07.298Z,17.05
2022-11-22T10:09:59.195Z,17.40
2022-11-22T10:12:53.981Z,17.50
2022-11-22T10:15:51.183Z,16.20
2022-11-22T10:18:43.328Z,15.88
2022-11-22T10:21:33.048Z,15.60
2022-11-22T10:24:21.368Z,16.67
2022-11-22T10:27:14.259Z,16.60
2022-11-22T10:30:06.015Z,17.02
2022-11-22T10:33:03.535Z,16.35
2022-11-22T10:36:05.581Z,16.98
2022-11-22T10:39:14.525Z,16.83
2022-11-22T10:42:24.677Z,15.70
2022-11-22T10:45:19.278Z,16.20
2022-11-22T10:48:21.034Z,16.30
2022-11-22T10:51:18.840Z,16.27
2022-11-22T10:54:17.925Z,15.15
2022-11-22T10:57:15.831Z,17.58
2022-11-22T11:00:19.521Z,16.73
2022-11-22T11:03:17.825Z,16.48
2022-11-22T11:06:43.545Z,16.15
2022-11-22T11:10:09.208Z,15.18
2022-11-22T11:12:41.387Z,15.82
2022-11-22T11:15:36.960Z,16.48
2022-11-22T11:18:29.965Z,15.20
2022-11-22T11:21:18.417Z,15.90
2022-11-22T11:24:14.001Z,15.27
2022-11-22T11:27:03.949Z,15.25
2022-11-22T11:29:56.363Z,16.10
2022-11-22T11:32:53.073Z,16.35
2022-11-22T11:35:42.556Z,16.48
2022-11-22T11:38:33.602Z,15.75
2022-11-22T11:41:29.139Z,15.15
2022-11-22T11:44:33.314Z,15.98
2022-11-22T11:47:33.526Z,15.88
2022-11-22T11:50:24.814Z,16.20
2022-11-22T11:53:23.647Z,16.75
2022-11-22T11:56:29.011Z,17.08
2022-11-22T11:59:19.645Z,16.10
2022-11-22T12:02:16.343Z,15.80
2022-11-22T12:05:07.482Z,15.73
2022-11-22T12:07:55.970Z,16.17
2022-11-22T12:10:49.582Z,16.60
2022-11-22T12:14:04.567Z,15.98
2022-11-22T12:16:54.018Z,16.00
2022-11-22T12:19:53.495Z,16.77
2022-11-22T12:22:54.554Z,15.63
2022-11-22T12:25:46.236Z,16.02
2022-11-22T12:28:34.852Z,15.15
2022-11-22T12:31:31.149Z,15.50
2022-11-22T12:34:25.950Z,14.88
2022-11-22T12:37:19.364Z,15.13
2022-11-22T12:40:15.995Z,16.38
2022-11-22T12:43:09.266Z,15.32
2022-11-22T12:46:01.327Z,16.35
2022-11-22T12:48:53.455Z,14.50
2022-11-22T12:51:46.106Z,14.40
2022-11-22T12:54:44.455Z,15.18
2022-11-22T12:57:39.667Z,16.02
2022-11-22T13:00:33.494Z,14.73
2022-11-22T13:03:28.230Z,15.32
2022-11-22T13:06:20.146Z,15.80
2022-11-22T13:09:13.060Z,14.75
2022-11-22T13:12:07.109Z,15.30
2022-11-22T13:14:56.610Z,15.38
2022-11-22T13:17:45.028Z,15.20
2022-11-22T13:20:43.016Z,15.02
2022-11-22T13:23:50.063Z,15.40
2022-11-22T13:26:47.374Z,15.68
2022-11-22T13:29:41.129Z,14.70
2022-11-22T13:32:32.436Z,15.02
2022-11-22T13:38:17.332Z,14.88
2022-11-22T13:41:24.134Z,15.02
2022-11-22T13:44:28.628Z,15.75
2022-11-22T13:47:39.727Z,15.63
2022-11-22T13:51:00.009Z,15.60
2022-11-22T13:53:49.681Z,15.57
2022-11-22T13:57:01.147Z,15.00
2022-11-22T14:03:27.702Z,15.43
2022-11-22T14:06:25.983Z,14.18
2022-11-22T14:09:31.663Z,14.35
2022-11-22T14:13:02.347Z,14.00
2022-11-22T14:16:03.836Z,12.00
2022-11-22T14:19:18.964Z,15.13
2022-11-22T14:22:29.017Z,15.32
2022-11-22T14:25:42.536Z,15.07
2022-11-22T14:29:03.497Z,14.32
2022-11-22T14:31:57.969Z,13.75
2022-11-22T14:35:18.073Z,14.73
2022-11-22T14:38:32.227Z,14.55
2022-11-22T14:41:44.125Z,14.18
2022-11-22T14:44:35.331Z,13.32
2022-11-22T14:50:18.483Z,13.75
2022-11-22T14:53:19.919Z,14.43
2022-11-22T14:56:16.032Z,14.95
2022-11-22T14:59:17.443Z,15.23
2022-11-22T15:09:10.285Z,15.15
2022-11-22T15:09:22.473Z,15.38
2022-11-22T15:12:17.352Z,15.48
2022-11-22T15:59:59.138Z,15.95
2022-11-22T16:02:50.885Z,15.45
2022-11-22T16:06:09.336Z,16.00
2022-11-22T16:08:54.334Z,15.48
2022-11-22T16:11:42.870Z,17.08
2022-11-22T16:14:49.437Z,16.80
2022-11-22T16:17:51.189Z,16.00
2022-11-22T16:20:43.385Z,15.30
2022-11-22T16:23:33.292Z,15.68
2022-11-22T16:26:26.970Z,16.05
2022-11-22T16:29:29.145Z,14.93
2022-11-22T16:32:18.132Z,17.05
2022-11-22T16:35:28.437Z,16.13
2022-11-22T16:38:17.339Z,15.15
2022-11-22T16:41:06.199Z,15.43
2022-11-22T16:44:00.527Z,16.30
2022-11-22T16:46:48.973Z,16.33
2022-11-22T16:49:37.554Z,16.60
2022-11-22T16:52:26.547Z,15.48
2022-11-22T16:55:16.753Z,16.25
2022-11-22T16:58:16.255Z,15.48
2022-11-22T17:01:06.306Z,16.63
2022-11-22T17:03:56.672Z,16.67
2022-11-22T17:06:44.940Z,16.80
2022-11-22T17:09:34.498Z,16.13
2022-11-22T17:12:30.476Z,16.65
2022-11-22T17:15:25.517Z,17.83
2022-11-22T17:18:15.466Z,17.27
2022-11-22T17:21:03.910Z,19.15
2022-11-22T17:23:53.413Z,17.58
2022-11-22T17:26:41.731Z,18.30
2022-11-22T17:32:40.237Z,17.70
2022-11-22T17:35:34.448Z,18.13
2022-11-22T17:38:25.169Z,18.85
2022-11-22T17:41:13.534Z,16.10
2022-11-22T17:44:02.314Z,17.85
2022-11-22T17:46:50.643Z,16.20
2022-11-22T17:49:38.913Z,16.88
2022-11-22T17:52:28.574Z,19.17
2022-11-22T17:55:17.024Z,19.48
2022-11-22T17:58:05.356Z,19.05
2022-11-22T18:00:53.764Z,21.45
2022-11-22T18:03:43.427Z,19.35
2022-11-22T18:06:32.197Z,18.65
2022-11-22T18:09:21.908Z,17.80
2022-11-22T18:12:10.176Z,18.52
2022-11-22T18:14:58.554Z,20.10
2022-11-22T18:17:46.830Z,18.60
2022-11-22T18:20:35.141Z,20.20
2022-11-22T18:23:25.117Z,20.10
2022-11-22T18:32:31.741Z,19.05
2022-11-22T18:35:20.104Z,18.95
2022-11-22T18:38:08.512Z,20.30
2022-11-22T18:41:00.058Z,20.45
2022-11-22T18:43:49.738Z,20.50
2022-11-22T18:46:38.053Z,20.58
2022-11-22T18:49:26.645Z,26.67
2022-11-22T18:52:17.774Z,24.55
2022-11-22T18:55:07.144Z,20.23
2022-11-22T18:57:55.592Z,19.02
2022-11-22T19:00:45.330Z,19.75
2022-11-22T19:03:33.653Z,18.23
2022-11-22T19:06:21.951Z,19.00
2022-11-22T19:09:11.191Z,19.20
2022-11-22T19:11:59.588Z,19.50
2022-11-22T19:14:47.946Z,20.23
2022-11-22T19:17:39.596Z,19.15
2022-11-22T19:20:55.917Z,19.50
2022-11-22T19:23:36.989Z,21.25
2022-11-22T19:26:27.166Z,21.10
2022-11-22T19:29:20.824Z,20.58
2022-11-22T19:32:09.434Z,19.90
2022-11-22T19:34:59.440Z,20.13
2022-11-22T19:37:47.847Z,20.40
2022-11-22T19:40:36.303Z,19.17
2022-11-22T19:43:25.024Z,20.50
2022-11-22T19:46:14.395Z,20.08
2022-11-22T19:49:03.019Z,19.10
2022-11-22T19:51:52.722Z,17.90
2022-11-22T19:54:41.092Z,19.27
2022-11-22T19:57:29.419Z,18.73
2022-11-22T20:00:18.580Z,17.63
2022-11-22T20:03:06.892Z,17.73
2022-11-22T20:05:59.929Z,18.15
2022-11-22T20:08:49.696Z,24.05
2022-11-22T20:11:38.356Z,21.65
2022-11-22T20:14:26.705Z,25.58
2022-11-22T20:17:15.444Z,22.08
2022-11-22T20:20:05.004Z,21.83
2022-11-22T20:22:53.380Z,22.67
2022-11-22T20:25:43.024Z,24.08
2022-11-22T20:28:31.680Z,20.73
2022-11-22T20:31:21.386Z,19.25
2022-11-22T20:34:11.054Z,17.52
2022-11-22T20:36:59.417Z,17.80
2022-11-22T20:39:47.721Z,18.05
2022-11-22T20:42:39.987Z,17.88
2022-11-22T20:45:28.395Z,17.30
2022-11-22T20:48:18.591Z,17.38
2022-11-22T20:51:09.610Z,16.42
2022-11-22T20:53:58.176Z,17.15
2022-11-22T20:56:47.339Z,16.63
2022-11-22T20:59:37.023Z,16.58
2022-11-22T21:02:25.672Z,17.65
2022-11-22T21:05:14.157Z,18.15
2022-11-22T21:08:05.234Z,17.08
2022-11-22T21:13:42.576Z,16.50
2022-11-22T21:16:32.686Z,16.08
2022-11-22T21:19:21.241Z,17.75
2022-11-22T21:22:09.640Z,15.68
2022-11-22T21:24:57.952Z,17.15
2022-11-22T21:27:47.806Z,17.08
2022-11-22T21:30:36.374Z,16.83
2022-11-22T21:33:26.302Z,16.10
2022-11-22T21:36:14.868Z,16.08
2022-11-22T21:39:03.348Z,15.38
2022-11-22T21:41:51.750Z,15.18
2022-11-22T21:44:40.051Z,14.02
2022-11-22T21:47:28.376Z,14.98
2022-11-22T21:50:18.694Z,15.18
2022-11-22T21:53:07.388Z,13.87
2022-11-22T21:55:57.269Z,18.08
2022-11-22T21:58:45.714Z,18.42
2022-11-22T22:01:34.414Z,17.75
2022-11-22T22:04:22.765Z,18.75
2022-11-22T22:07:29.856Z,17.00
2022-11-22T22:10:20.885Z,17.98
2022-11-22T22:13:09.205Z,17.92
2022-11-22T22:15:58.991Z,16.70
2022-11-22T22:18:47.530Z,17.20
2022-11-22T22:21:36.595Z,16.45
2022-11-22T22:24:26.888Z,16.40
2022-11-22T22:27:15.216Z,16.77
2022-11-22T22:30:03.610Z,15.95
2022-11-22T22:32:52.004Z,17.70
2022-11-22T22:35:40.323Z,18.15
2022-11-22T22:38:30.154Z,18.38
2022-11-22T22:41:20.181Z,18.23
2022-11-22T22:44:08.681Z,18.88
2022-11-22T22:46:57.018Z,16.58
2022-11-22T22:49:45.328Z,18.13
2022-11-22T22:52:34.750Z,17.65
2022-11-22T22:55:23.056Z,18.10
2022-11-22T22:58:13.991Z,18.05
2022-11-22T23:01:06.376Z,17.20
2022-11-22T23:03:57.287Z,17.17
2022-11-22T23:06:45.655Z,16.83
2022-11-22T23:09:34.149Z,16.02
2022-11-22T23:12:22.641Z,15.13
2022-11-22T23:15:12.596Z,15.13
2022-11-22T23:18:00.951Z,14.77
2022-11-22T23:20:49.244Z,14.90
2022-11-22T23:23:37.734Z,15.57
2022-11-22T23:26:26.055Z,14.25
2022-11-22T23:29:14.395Z,15.18
2022-11-22T23:32:04.162Z,14.32
2022-11-22T23:34:52.489Z,14.57
2022-11-22T23:37:40.772Z,14.68
2022-11-22T23:40:29.191Z,14.63
2022-11-22T23:43:17.506Z,14.27
2022-11-22T23:46:06.068Z,14.45
2022-11-22T23:48:57.200Z,14.77
2022-11-22T23:51:46.269Z,14.63
2022-11-22T23:54:34.564Z,14.95
2022-11-22T23:57:23.250Z,15.10
